sensor_id;sensor_type;location;lat;lon;timestamp;P1;durP1;ratioP1;P2;durP2;ratioP2
28296;SDS011;62078;49.366;8.172;2023-05-16T17:06:01;10.55;;;1.10;;
28296;SDS011;62078;49.366;8.172;2023-05-16T17:08:27;7.68;;;1.30;;
28296;SDS011;62078;49.366;8.172;2023-05-16T17:10:53;5.82;;;1.30;;
28296;SDS011;62078;49.366;8.172;2023-05-16T17:13:18;6.55;;;1.35;;
28296;SDS011;62078;49.366;8.172;2023-05-16T17:15:44;10.75;;;1.63;;
28296;SDS011;62078;49.366;8.172;2023-05-16T17:18:11;10.90;;;1.45;;
28296;SDS011;62078;49.366;8.172;2023-05-16T17:20:38;5.70;;;1.17;;
28296;SDS011;62078;49.366;8.172;2023-05-16T17:23:04;8.93;;;1.30;;
28296;SDS011;62078;49.366;8.172;2023-05-16T17:25:30;6.38;;;1.10;;
28296;SDS011;62078;49.366;8.172;2023-05-16T17:27:56;5.30;;;1.35;;
28296;SDS011;62078;49.366;8.172;2023-05-16T17:30:22;6.82;;;1.40;;
28296;SDS011;62078;49.366;8.172;2023-05-16T17:32:47;7.20;;;1.70;;
28296;SDS011;62078;49.366;8.172;2023-05-16T17:35:13;10.63;;;1.30;;
28296;SDS011;62078;49.366;8.172;2023-05-16T17:37:39;9.50;;;1.40;;
28296;SDS011;62078;49.366;8.172;2023-05-16T17:40:05;11.25;;;1.10;;
28296;SDS011;62078;49.366;8.172;2023-05-16T17:42:34;5.80;;;1.20;;
28296;SDS011;62078;49.366;8.172;2023-05-16T17:45:00;4.78;;;1.10;;
28296;SDS011;62078;49.366;8.172;2023-05-16T17:47:28;7.15;;;0.93;;
28296;SDS011;62078;49.366;8.172;2023-05-16T17:49:54;4.28;;;0.85;;
28296;SDS011;62078;49.366;8.172;2023-05-16T17:52:19;5.40;;;1.05;;
28296;SDS011;62078;49.366;8.172;2023-05-16T17:54:47;5.15;;;0.90;;
28296;SDS011;62078;49.366;8.172;2023-05-16T17:57:12;4.32;;;1.08;;
28296;SDS011;62078;49.366;8.172;2023-05-16T17:59:38;8.05;;;1.13;;
28296;SDS011;62078;49.366;8.172;2023-05-16T18:02:04;8.85;;;1.35;;
28296;SDS011;62078;49.366;8.172;2023-05-16T18:04:33;4.20;;;0.80;;
28296;SDS011;62078;49.366;8.172;2023-05-16T18:06:59;3.85;;;0.70;;
28296;SDS011;62078;49.366;8.172;2023-05-16T18:09:25;3.55;;;0.90;;
28296;SDS011;62078;49.366;8.172;2023-05-16T18:11:51;5.38;;;1.00;;
28296;SDS011;62078;49.366;8.172;2023-05-16T18:14:18;3.67;;;1.27;;
28296;SDS011;62078;49.366;8.172;2023-05-16T18:16:43;6.43;;;1.30;;
28296;SDS011;62078;49.366;8.172;2023-05-16T18:19:09;3.92;;;0.80;;
28296;SDS011;62078;49.366;8.172;2023-05-16T18:21:35;10.68;;;1.38;;
28296;SDS011;62078;49.366;8.172;2023-05-16T18:24:02;5.68;;;1.10;;
28296;SDS011;62078;49.366;8.172;2023-05-16T18:26:28;4.38;;;0.90;;
28296;SDS011;62078;49.366;8.172;2023-05-16T18:28:54;4.90;;;1.33;;
28296;SDS011;62078;49.366;8.172;2023-05-16T18:31:19;7.57;;;1.25;;
28296;SDS011;62078;49.366;8.172;2023-05-16T18:33:46;5.70;;;0.98;;
28296;SDS011;62078;49.366;8.172;2023-05-16T18:36:11;2.78;;;0.90;;
28296;SDS011;62078;49.366;8.172;2023-05-16T18:38:37;4.95;;;0.80;;
28296;SDS011;62078;49.366;8.172;2023-05-16T18:41:05;4.25;;;0.90;;
28296;SDS011;62078;49.366;8.172;2023-05-16T18:43:31;2.80;;;0.77;;
28296;SDS011;62078;49.366;8.172;2023-05-16T18:46:00;2.58;;;0.60;;
28296;SDS011;62078;49.366;8.172;2023-05-16T18:48:26;3.10;;;0.90;;
28296;SDS011;62078;49.366;8.172;2023-05-16T18:50:52;4.75;;;1.00;;
28296;SDS011;62078;49.366;8.172;2023-05-16T18:53:18;14.77;;;1.73;;
28296;SDS011;62078;49.366;8.172;2023-05-16T18:55:43;15.48;;;1.63;;
28296;SDS011;62078;49.366;8.172;2023-05-16T18:58:09;9.75;;;1.10;;
28296;SDS011;62078;49.366;8.172;2023-05-16T19:00:35;17.38;;;1.92;;
28296;SDS011;62078;49.366;8.172;2023-05-16T19:03:01;19.05;;;1.45;;
28296;SDS011;62078;49.366;8.172;2023-05-16T19:05:27;14.80;;;1.67;;
28296;SDS011;62078;49.366;8.172;2023-05-16T19:07:53;13.88;;;1.67;;
28296;SDS011;62078;49.366;8.172;2023-05-16T19:10:18;9.48;;;1.48;;
28296;SDS011;62078;49.366;8.172;2023-05-16T19:12:44;12.73;;;1.55;;
28296;SDS011;62078;49.366;8.172;2023-05-16T19:15:12;16.85;;;1.45;;
28296;SDS011;62078;49.366;8.172;2023-05-16T19:17:38;19.75;;;1.80;;
28296;SDS011;62078;49.366;8.172;2023-05-16T19:20:05;10.30;;;1.08;;
28296;SDS011;62078;49.366;8.172;2023-05-16T19:22:33;7.47;;;1.05;;
28296;SDS011;62078;49.366;8.172;2023-05-16T19:24:59;8.07;;;1.55;;
28296;SDS011;62078;49.366;8.172;2023-05-16T19:27:25;13.63;;;1.17;;
28296;SDS011;62078;49.366;8.172;2023-05-16T19:29:52;9.50;;;1.58;;
28296;SDS011;62078;49.366;8.172;2023-05-16T19:32:21;9.95;;;1.25;;
28296;SDS011;62078;49.366;8.172;2023-05-16T19:34:47;14.18;;;1.67;;
28296;SDS011;62078;49.366;8.172;2023-05-16T19:37:13;12.38;;;1.77;;
28296;SDS011;62078;49.366;8.172;2023-05-16T19:39:38;9.73;;;1.08;;
28296;SDS011;62078;49.366;8.172;2023-05-16T19:42:04;8.90;;;1.15;;
28296;SDS011;62078;49.366;8.172;2023-05-16T19:44:30;6.90;;;1.33;;
28296;SDS011;62078;49.366;8.172;2023-05-16T19:46:55;9.75;;;1.20;;
28296;SDS011;62078;49.366;8.172;2023-05-16T19:49:21;4.60;;;1.10;;
28296;SDS011;62078;49.366;8.172;2023-05-16T19:51:47;9.77;;;1.17;;
28296;SDS011;62078;49.366;8.172;2023-05-16T19:54:12;7.72;;;1.40;;
28296;SDS011;62078;49.366;8.172;2023-05-16T19:56:38;8.77;;;1.10;;
28296;SDS011;62078;49.366;8.172;2023-05-16T19:59:04;8.30;;;0.80;;
28296;SDS011;62078;49.366;8.172;2023-05-16T20:01:30;11.45;;;1.35;;
28296;SDS011;62078;49.366;8.172;2023-05-16T20:03:55;14.65;;;1.48;;
28296;SDS011;62078;49.366;8.172;2023-05-16T20:06:21;17.00;;;1.88;;
28296;SDS011;62078;49.366;8.172;2023-05-16T20:08:47;13.63;;;1.30;;
28296;SDS011;62078;49.366;8.172;2023-05-16T20:11:13;11.48;;;1.40;;
28296;SDS011;62078;49.366;8.172;2023-05-16T20:13:39;9.48;;;1.38;;
28296;SDS011;62078;49.366;8.172;2023-05-16T20:16:04;9.77;;;1.58;;
28296;SDS011;62078;49.366;8.172;2023-05-16T20:18:30;12.95;;;1.13;;
28296;SDS011;62078;49.366;8.172;2023-05-16T20:20:56;12.57;;;1.40;;
28296;SDS011;62078;49.366;8.172;2023-05-16T20:23:22;9.93;;;1.50;;
28296;SDS011;62078;49.366;8.172;2023-05-16T20:25:47;16.70;;;1.35;;
28296;SDS011;62078;49.366;8.172;2023-05-16T20:28:13;6.93;;;1.17;;
28296;SDS011;62078;49.366;8.172;2023-05-16T20:30:39;7.07;;;1.20;;
28296;SDS011;62078;49.366;8.172;2023-05-16T20:33:04;6.50;;;1.23;;
28296;SDS011;62078;49.366;8.172;2023-05-16T20:35:30;9.35;;;1.50;;
28296;SDS011;62078;49.366;8.172;2023-05-16T20:37:55;7.30;;;1.13;;
28296;SDS011;62078;49.366;8.172;2023-05-16T20:40:21;6.63;;;1.33;;
28296;SDS011;62078;49.366;8.172;2023-05-16T20:42:47;9.18;;;1.27;;
28296;SDS011;62078;49.366;8.172;2023-05-16T20:45:13;6.82;;;1.60;;
28296;SDS011;62078;49.366;8.172;2023-05-16T20:47:38;8.77;;;1.60;;
28296;SDS011;62078;49.366;8.172;2023-05-16T20:50:04;9.48;;;1.05;;
28296;SDS011;62078;49.366;8.172;2023-05-16T20:52:31;6.28;;;1.75;;
28296;SDS011;62078;49.366;8.172;2023-05-16T20:54:56;3.88;;;1.15;;
28296;SDS011;62078;49.366;8.172;2023-05-16T20:57:22;5.90;;;1.13;;
28296;SDS011;62078;49.366;8.172;2023-05-16T20:59:48;5.93;;;1.17;;
28296;SDS011;62078;49.366;8.172;2023-05-16T21:02:14;8.93;;;1.30;;
28296;SDS011;62078;49.366;8.172;2023-05-16T21:04:39;6.43;;;1.10;;
28296;SDS011;62078;49.366;8.172;2023-05-16T21:07:05;4.60;;;0.93;;
28296;SDS011;62078;49.366;8.172;2023-05-16T21:09:31;3.08;;;1.00;;
28296;SDS011;62078;49.366;8.172;2023-05-16T21:11:58;5.53;;;1.20;;
28296;SDS011;62078;49.366;8.172;2023-05-16T21:14:24;6.93;;;1.80;;
28296;SDS011;62078;49.366;8.172;2023-05-16T21:16:49;4.47;;;0.77;;
28296;SDS011;62078;49.366;8.172;2023-05-16T21:19:16;7.57;;;1.08;;
28296;SDS011;62078;49.366;8.172;2023-05-16T21:21:42;5.80;;;1.08;;
28296;SDS011;62078;49.366;8.172;2023-05-16T21:24:08;4.28;;;1.00;;
28296;SDS011;62078;49.366;8.172;2023-05-16T21:26:33;6.28;;;1.17;;
28296;SDS011;62078;49.366;8.172;2023-05-16T21:28:59;6.55;;;1.08;;
28296;SDS011;62078;49.366;8.172;2023-05-16T21:31:25;4.50;;;1.30;;
28296;SDS011;62078;49.366;8.172;2023-05-16T21:33:51;6.47;;;0.93;;
28296;SDS011;62078;49.366;8.172;2023-05-16T21:36:17;4.32;;;1.00;;
28296;SDS011;62078;49.366;8.172;2023-05-16T21:38:43;3.85;;;1.10;;
28296;SDS011;62078;49.366;8.172;2023-05-16T21:41:09;4.57;;;1.10;;
28296;SDS011;62078;49.366;8.172;2023-05-16T21:43:35;4.47;;;1.27;;
28296;SDS011;62078;49.366;8.172;2023-05-16T21:46:00;2.63;;;0.85;;
28296;SDS011;62078;49.366;8.172;2023-05-16T21:48:26;8.60;;;1.25;;
28296;SDS011;62078;49.366;8.172;2023-05-16T21:50:52;5.10;;;0.90;;
28296;SDS011;62078;49.366;8.172;2023-05-16T21:53:17;8.73;;;1.23;;
28296;SDS011;62078;49.366;8.172;2023-05-16T21:55:43;12.75;;;1.45;;
28296;SDS011;62078;49.366;8.172;2023-05-16T21:58:09;3.75;;;0.85;;
28296;SDS011;62078;49.366;8.172;2023-05-16T22:00:34;5.10;;;0.77;;
28296;SDS011;62078;49.366;8.172;2023-05-16T22:03:00;4.35;;;1.10;;
28296;SDS011;62078;49.366;8.172;2023-05-16T22:05:26;4.68;;;0.80;;
28296;SDS011;62078;49.366;8.172;2023-05-16T22:07:52;5.20;;;0.82;;
28296;SDS011;62078;49.366;8.172;2023-05-16T22:10:17;3.17;;;0.75;;
28296;SDS011;62078;49.366;8.172;2023-05-16T22:12:43;3.70;;;0.82;;
28296;SDS011;62078;49.366;8.172;2023-05-16T22:15:09;5.30;;;0.80;;
28296;SDS011;62078;49.366;8.172;2023-05-16T22:17:35;4.03;;;0.75;;
28296;SDS011;62078;49.366;8.172;2023-05-16T22:20:01;3.63;;;0.90;;
28296;SDS011;62078;49.366;8.172;2023-05-16T22:22:26;5.35;;;0.95;;
28296;SDS011;62078;49.366;8.172;2023-05-16T22:24:52;4.90;;;0.80;;
28296;SDS011;62078;49.366;8.172;2023-05-16T22:27:18;5.00;;;0.98;;
28296;SDS011;62078;49.366;8.172;2023-05-16T22:29:43;7.03;;;1.73;;
28296;SDS011;62078;49.366;8.172;2023-05-16T22:32:09;4.15;;;0.90;;
28296;SDS011;62078;49.366;8.172;2023-05-16T22:34:35;3.30;;;0.82;;
28296;SDS011;62078;49.366;8.172;2023-05-16T22:37:07;4.70;;;1.10;;
28296;SDS011;62078;49.366;8.172;2023-05-16T22:39:33;10.63;;;1.20;;
28296;SDS011;62078;49.366;8.172;2023-05-16T22:41:59;4.68;;;0.70;;
28296;SDS011;62078;49.366;8.172;2023-05-16T22:44:26;5.25;;;0.80;;
28296;SDS011;62078;49.366;8.172;2023-05-16T22:46:52;3.10;;;0.90;;
28296;SDS011;62078;49.366;8.172;2023-05-16T22:49:17;4.60;;;0.88;;
28296;SDS011;62078;49.366;8.172;2023-05-16T22:51:43;5.38;;;1.35;;
28296;SDS011;62078;49.366;8.172;2023-05-16T22:54:09;4.05;;;1.25;;
28296;SDS011;62078;49.366;8.172;2023-05-16T22:56:35;5.57;;;1.30;;
28296;SDS011;62078;49.366;8.172;2023-05-16T22:59:01;3.13;;;0.80;;
28296;SDS011;62078;49.366;8.172;2023-05-16T23:01:27;8.48;;;1.30;;
28296;SDS011;62078;49.366;8.172;2023-05-16T23:03:53;2.30;;;0.70;;
28296;SDS011;62078;49.366;8.172;2023-05-16T23:06:18;3.40;;;0.80;;
28296;SDS011;62078;49.366;8.172;2023-05-16T23:08:44;5.95;;;1.02;;
28296;SDS011;62078;49.366;8.172;2023-05-16T23:11:10;4.40;;;0.90;;
28296;SDS011;62078;49.366;8.172;2023-05-16T23:13:35;3.75;;;0.77;;
28296;SDS011;62078;49.366;8.172;2023-05-16T23:16:01;4.10;;;0.80;;
28296;SDS011;62078;49.366;8.172;2023-05-16T23:18:27;3.72;;;0.80;;
28296;SDS011;62078;49.366;8.172;2023-05-16T23:20:52;5.03;;;1.05;;
28296;SDS011;62078;49.366;8.172;2023-05-16T23:23:18;3.13;;;0.98;;
28296;SDS011;62078;49.366;8.172;2023-05-16T23:25:43;3.85;;;0.80;;
28296;SDS011;62078;49.366;8.172;2023-05-16T23:28:09;2.60;;;0.70;;
28296;SDS011;62078;49.366;8.172;2023-05-16T23:30:35;2.65;;;0.85;;
28296;SDS011;62078;49.366;8.172;2023-05-16T23:33:01;5.43;;;0.90;;
28296;SDS011;62078;49.366;8.172;2023-05-16T23:35:26;2.50;;;0.70;;
28296;SDS011;62078;49.366;8.172;2023-05-16T23:37:52;6.28;;;1.10;;
28296;SDS011;62078;49.366;8.172;2023-05-16T23:40:18;2.60;;;0.73;;
28296;SDS011;62078;49.366;8.172;2023-05-16T23:42:43;2.58;;;0.90;;
28296;SDS011;62078;49.366;8.172;2023-05-16T23:45:09;2.55;;;0.60;;
28296;SDS011;62078;49.366;8.172;2023-05-16T23:47:35;2.95;;;0.80;;
28296;SDS011;62078;49.366;8.172;2023-05-16T23:50:01;2.42;;;0.73;;
28296;SDS011;62078;49.366;8.172;2023-05-16T23:52:27;2.80;;;0.65;;
28296;SDS011;62078;49.366;8.172;2023-05-16T23:54:53;2.85;;;0.70;;
28296;SDS011;62078;49.366;8.172;2023-05-16T23:57:19;2.30;;;0.80;;
28296;SDS011;62078;49.366;8.172;2023-05-16T23:59:44;4.22;;;0.80;;
